Time;durP1;ratioP1;P1;durP2;ratioP2;P2;SDS_P1;SDS_P2;PMS_P1;PMS_P2;Temp;Humidity;BMP_temperature;BMP_pressure;BME280_temperature;BME280_humidity;BME280_pressure;Samples;Min_cycle;Max_cycle;Signal;HPM_P1;HPM_P2
2022/01/16 00:01:17;;;;;;;47.57;30.80;;;;;;;-0.81;92.72;97419.78;5060636;28;20271;-71
2022/01/16 00:06:27;;;;;;;43.03;30.23;;;;;;;-0.74;92.71;97403.91;5047959;28;20666;-70
2022/01/16 00:08:54;;;;;;;44.27;30.00;;;;;;;-0.73;91.61;97421.22;5052173;28;20655;-70
2022/01/16 00:11:23;;;;;;;47.97;31.10;;;;;;;-0.74;92.39;97429.88;5042876;28;20214;-70
2022/01/16 00:13:49;;;;;;;45.73;30.27;;;;;;;-0.75;92.68;97445.53;5036949;28;20257;-70
2022/01/16 00:16:16;;;;;;;49.37;30.90;;;;;;;-0.78;92.12;97427.47;5055028;28;20217;-71
2022/01/16 00:18:49;;;;;;;49.40;30.70;;;;;;;-0.82;92.83;97410.31;5036421;28;20212;-70
2022/01/16 00:21:16;;;;;;;43.83;30.07;;;;;;;-0.78;92.12;97398.91;5040155;28;20221;-70
2022/01/16 00:23:43;;;;;;;45.17;29.53;;;;;;;-0.88;92.88;97410.50;5048524;28;20219;-69
2022/01/16 00:26:09;;;;;;;44.23;29.60;;;;;;;-0.90;92.87;97408.00;5052914;28;20212;-70
2022/01/16 00:28:37;;;;;;;39.13;27.87;;;;;;;-0.87;90.94;97376.72;5035519;28;20222;-69
2022/01/16 00:31:03;;;;;;;41.37;28.83;;;;;;;-0.88;91.43;97394.94;5034543;28;20641;-69
2022/01/16 00:33:30;;;;;;;37.00;27.97;;;;;;;-0.98;91.66;97419.53;5034466;28;20627;-70
2022/01/16 00:35:56;;;;;;;38.30;27.73;;;;;;;-0.95;91.85;97435.84;5034299;28;20247;-71
2022/01/16 00:38:23;;;;;;;37.80;26.83;;;;;;;-1.05;91.22;97435.34;5045853;28;20208;-70
2022/01/16 00:40:49;;;;;;;36.27;26.13;;;;;;;-0.95;91.59;97406.44;5034775;28;20223;-70
2022/01/16 00:43:15;;;;;;;36.47;26.40;;;;;;;-0.94;89.95;97426.31;5034359;28;20215;-69
2022/01/16 00:45:43;;;;;;;37.07;26.50;;;;;;;-0.97;90.56;97426.44;5034699;28;20212;-70
2022/01/16 00:48:10;;;;;;;34.40;25.00;;;;;;;-1.02;90.31;97449.94;5034623;28;20213;-70
2022/01/16 00:50:36;;;;;;;36.20;26.07;;;;;;;-1.04;90.64;97431.00;5033762;28;20668;-71
2022/01/16 00:53:03;;;;;;;34.67;25.03;;;;;;;-1.04;90.94;97447.41;5041289;28;20222;-70
2022/01/16 00:55:32;;;;;;;37.77;26.07;;;;;;;-0.97;90.47;97429.03;5054351;28;20203;-69
2022/01/16 00:57:59;;;;;;;34.43;25.93;;;;;;;-1.01;90.65;97442.13;5054314;28;20208;-70
2022/01/16 01:00:27;;;;;;;36.03;25.60;;;;;;;-1.02;90.65;97435.22;5054121;28;20206;-70
2022/01/16 01:02:55;;;;;;;35.97;25.63;;;;;;;-1.09;91.41;97444.13;5051506;28;20510;-69
2022/01/16 01:05:21;;;;;;;38.37;25.57;;;;;;;-1.01;90.64;97451.66;5039148;28;20239;-70
2022/01/16 01:07:48;;;;;;;38.63;26.57;;;;;;;-1.02;90.21;97463.78;5047227;28;20199;-70
2022/01/16 01:10:14;;;;;;;37.50;26.50;;;;;;;-1.09;91.20;97454.50;5045666;28;20230;-70
2022/01/16 01:12:52;;;;;;;38.83;26.77;;;;;;;-1.10;91.84;97416.47;5053751;28;20210;-70
2022/01/16 01:15:21;;;;;;;41.00;27.23;;;;;;;-1.09;93.67;97387.03;5045066;28;20629;-69
2022/01/16 01:17:49;;;;;;;41.50;27.50;;;;;;;-0.94;92.78;97379.59;5058674;28;20310;-70
2022/01/16 01:20:19;;;;;;;39.97;27.63;;;;;;;-0.99;93.20;97376.31;5058705;28;20246;-70
2022/01/16 01:22:47;;;;;;;39.63;27.13;;;;;;;-1.04;92.56;97385.13;5050387;28;20200;-70
2022/01/16 01:25:14;;;;;;;43.77;28.27;;;;;;;-1.02;93.32;97400.63;5043569;28;20253;-70
2022/01/16 01:27:41;;;;;;;43.43;29.27;;;;;;;-0.98;92.68;97414.34;5058439;28;20200;-70
2022/01/16 01:30:09;;;;;;;41.13;28.03;;;;;;;-0.95;93.91;97419.41;5038908;28;20243;-70
2022/01/16 01:32:37;;;;;;;39.90;28.73;;;;;;;-0.95;93.08;97429.81;5038553;28;20236;-70
2022/01/16 01:35:05;;;;;;;43.80;29.17;;;;;;;-0.99;94.71;97446.41;5038106;28;20626;-70
2022/01/16 01:37:33;;;;;;;46.53;30.07;;;;;;;-1.04;95.54;97437.03;5038381;28;20219;-70
2022/01/16 01:39:59;;;;;;;48.37;29.33;;;;;;;-1.07;96.73;97452.72;5039012;28;20227;-70
2022/01/16 01:42:31;;;;;;;60.13;31.17;;;;;;;-1.03;97.59;97443.91;5052530;28;20211;-71
2022/01/16 01:53:14;;;;;;;50.73;29.77;;;;;;;-0.89;97.77;97459.03;5060685;28;20221;-70
2022/01/16 01:55:42;;;;;;;47.03;31.90;;;;;;;-0.84;95.97;97457.09;5051637;28;20207;-70
2022/01/16 01:58:09;;;;;;;46.90;30.03;;;;;;;-0.87;95.70;97469.34;5046891;28;20211;-70
2022/01/16 02:00:35;;;;;;;46.50;30.30;;;;;;;-0.93;94.92;97486.00;5042545;28;20223;-70
2022/01/16 02:03:13;;;;;;;42.77;28.67;;;;;;;-0.93;94.77;97490.31;5042073;28;20529;-70
2022/01/16 02:05:42;;;;;;;46.43;31.10;;;;;;;-0.91;94.89;97489.38;5055024;28;20244;-70
2022/01/16 02:08:09;;;;;;;42.23;29.27;;;;;;;-0.92;94.83;97492.03;5044238;28;20236;-67
2022/01/16 02:10:38;;;;;;;46.37;30.07;;;;;;;-0.93;94.42;97501.56;5049052;28;20319;-71
2022/01/16 02:13:08;;;;;;;47.83;29.73;;;;;;;-0.96;94.37;97503.41;5054386;28;20208;-68
2022/01/16 02:27:56;;;;;;;47.73;30.63;;;;;;;-0.88;94.18;97496.19;5065036;28;20234;-70
2022/01/16 02:32:29;;;;;;;44.53;29.10;;;;;;;-0.64;95.98;97479.78;5043361;28;20607;-70
2022/01/16 02:34:55;;;;;;;45.40;30.37;;;;;;;-0.58;95.91;97477.81;5054056;28;20220;-69
2022/01/16 02:37:24;;;;;;;69.77;30.73;;;;;;;-0.64;96.91;97477.19;5047044;28;20207;-70
2022/01/16 02:39:53;;;;;;;54.30;31.50;;;;;;;-0.68;98.21;97467.78;5050679;28;20488;-69
2022/01/16 02:42:26;;;;;;;48.53;30.20;;;;;;;-0.58;98.07;97470.00;5037696;28;20216;-68
2022/01/16 02:45:01;;;;;;;80.03;31.53;;;;;;;-0.62;98.03;97460.63;5039755;28;20205;-70
2022/01/16 02:47:28;;;;;;;64.53;32.23;;;;;;;-0.62;98.62;97462.38;5044783;28;20217;-69
2022/01/16 02:49:54;;;;;;;43.27;30.20;;;;;;;-0.57;98.22;97457.88;5057249;28;20249;-71
2022/01/16 02:52:22;;;;;;;46.13;31.63;;;;;;;-0.53;98.00;97443.84;5054067;28;20226;-69
2022/01/16 02:54:50;;;;;;;46.83;30.23;;;;;;;-0.51;97.97;97439.47;5037211;28;20218;-71
2022/01/16 02:57:20;;;;;;;48.07;31.33;;;;;;;-0.56;97.74;97443.97;5037183;28;20639;-69
2022/01/16 02:59:49;;;;;;;54.10;32.10;;;;;;;-0.53;96.70;97429.09;5056713;28;20223;-69
2022/01/16 03:02:17;;;;;;;46.23;31.27;;;;;;;-0.68;96.92;97450.47;5056162;28;20204;-71
2022/01/16 03:04:43;;;;;;;40.13;27.67;;;;;;;-0.66;96.56;97455.59;5046814;28;20200;-71
2022/01/16 03:07:10;;;;;;;43.53;28.33;;;;;;;-0.58;94.92;97453.56;5043710;28;20661;-71
2022/01/16 03:09:52;;;;;;;40.40;28.20;;;;;;;-0.70;92.52;97434.06;5037983;28;20237;-71
2022/01/16 03:12:20;;;;;;;38.73;26.90;;;;;;;-0.77;92.39;97432.59;5038951;28;20207;-70
2022/01/16 03:14:46;;;;;;;38.83;28.60;;;;;;;-0.79;92.33;97437.03;5038575;28;20208;-70
2022/01/16 03:17:13;;;;;;;36.10;26.30;;;;;;;-0.85;91.85;97432.03;5039103;28;20211;-69
2022/01/16 03:22:23;;;;;;;44.87;29.90;;;;;;;-0.82;91.65;97436.28;5049599;28;20296;-71
2022/01/16 03:24:50;;;;;;;41.50;28.37;;;;;;;-0.86;92.81;97438.13;5037991;28;20213;-71
2022/01/16 03:27:20;;;;;;;41.47;27.40;;;;;;;-0.87;93.29;97435.59;5038869;28;20216;-69
2022/01/16 03:29:51;;;;;;;41.10;27.73;;;;;;;-0.97;94.63;97426.44;5038682;28;20244;-71
2022/01/16 03:32:19;;;;;;;40.90;28.53;;;;;;;-0.97;93.54;97416.03;5037580;28;20208;-70
2022/01/16 03:34:46;;;;;;;40.93;28.63;;;;;;;-1.05;95.68;97421.50;5036193;28;20208;-68
2022/01/16 03:37:12;;;;;;;38.93;26.57;;;;;;;-1.05;96.23;97432.75;5035338;28;20203;-69
2022/01/16 03:39:39;;;;;;;42.33;29.00;;;;;;;-1.02;96.02;97443.00;5035746;28;20212;-69
2022/01/16 03:42:07;;;;;;;38.90;28.20;;;;;;;-0.94;96.21;97449.69;5046378;28;20207;-70
2022/01/16 03:44:35;;;;;;;39.87;28.43;;;;;;;-0.90;95.71;97448.69;5037130;28;20296;-70
2022/01/16 03:47:02;;;;;;;42.90;27.70;;;;;;;-0.93;94.81;97433.22;5037655;28;20217;-71
2022/01/16 03:49:30;;;;;;;41.47;29.13;;;;;;;-0.84;94.14;97445.84;5051054;28;20246;-70
2022/01/16 03:51:57;;;;;;;48.40;28.30;;;;;;;-0.82;95.13;97441.47;5035834;28;20204;-70
2022/01/16 03:54:27;;;;;;;46.50;29.63;;;;;;;-0.94;95.09;97444.50;5055008;28;20210;-70
2022/01/16 03:56:54;;;;;;;40.57;28.20;;;;;;;-0.99;95.44;97443.81;5061294;28;20308;-70
2022/01/16 03:59:21;;;;;;;41.40;28.73;;;;;;;-0.93;96.51;97448.78;5040881;28;20215;-70
2022/01/16 04:01:49;;;;;;;44.13;29.23;;;;;;;-0.94;96.63;97452.28;5041800;28;20200;-70
2022/01/16 04:04:16;;;;;;;41.10;27.10;;;;;;;-0.87;96.82;97459.81;5051703;28;20216;-71
2022/01/16 04:06:42;;;;;;;44.23;28.40;;;;;;;-0.83;97.12;97469.19;5076250;28;20249;-71
2022/01/16 04:09:09;;;;;;;43.70;28.07;;;;;;;-0.83;97.76;97469.19;5075956;28;20204;-70
2022/01/16 04:11:36;;;;;;;42.87;28.90;;;;;;;-0.75;95.73;97459.38;5076064;28;20230;-70
2022/01/16 04:14:08;;;;;;;41.20;28.60;;;;;;;-0.76;95.93;97462.03;5076826;28;20253;-69
2022/01/16 04:16:36;;;;;;;37.43;28.47;;;;;;;-0.66;96.32;97466.84;5056958;28;20222;-71
2022/01/16 04:19:04;;;;;;;46.10;27.27;;;;;;;-0.64;95.86;97462.41;5035846;28;20216;-70
2022/01/16 04:21:30;;;;;;;49.37;27.87;;;;;;;-0.65;95.54;97454.69;5035823;28;20207;-70
2022/01/16 04:23:57;;;;;;;50.67;28.63;;;;;;;-0.78;96.38;97458.66;5035414;28;20207;-69
2022/01/16 04:26:26;;;;;;;43.57;28.13;;;;;;;-0.65;96.29;97459.88;5035230;28;20217;-70
2022/01/16 04:28:53;;;;;;;44.67;28.77;;;;;;;-0.70;96.91;97461.78;5035370;28;20339;-70
2022/01/16 04:31:20;;;;;;;54.33;27.90;;;;;;;-0.67;96.33;97452.13;5035245;28;20231;-70
2022/01/16 04:33:46;;;;;;;45.77;28.30;;;;;;;-0.74;97.32;97449.81;5035121;28;20207;-70
2022/01/16 04:36:15;;;;;;;47.40;28.67;;;;;;;-0.73;97.01;97447.19;5035635;28;20216;-70
2022/01/16 04:38:45;;;;;;;44.93;27.70;;;;;;;-0.77;97.02;97461.16;5035821;28;20209;-71
2022/01/16 04:43:56;;;;;;;38.87;27.73;;;;;;;-0.70;97.21;97452.25;5043670;28;20223;-70
2022/01/16 04:46:24;;;;;;;71.27;29.07;;;;;;;-0.76;96.14;97456.81;5056761;28;20280;-71
2022/01/16 04:48:51;;;;;;;52.03;28.03;;;;;;;-0.71;96.64;97460.13;5059514;28;20219;-69
2022/01/16 04:51:20;;;;;;;61.30;29.07;;;;;;;-0.84;97.26;97461.44;5039184;28;20248;-70
2022/01/16 04:53:46;;;;;;;65.87;27.77;;;;;;;-0.91;96.43;97457.34;5045587;28;20215;-70
2022/01/16 04:56:14;;;;;;;48.27;28.83;;;;;;;-0.97;98.11;97462.78;5053868;28;20211;-69
2022/01/16 04:58:41;;;;;;;46.13;26.90;;;;;;;-0.90;98.39;97456.47;5045283;28;20204;-70
2022/01/16 05:01:08;;;;;;;41.20;26.30;;;;;;;-0.95;98.36;97458.38;5058048;28;20206;-70
2022/01/16 05:03:35;;;;;;;69.93;29.33;;;;;;;-0.95;97.84;97467.00;5045135;28;20215;-70
2022/01/16 05:06:03;;;;;;;46.30;27.83;;;;;;;-0.86;97.92;97465.84;5051375;28;20239;-70
2022/01/16 05:08:31;;;;;;;49.50;28.83;;;;;;;-0.85;98.51;97467.56;5038208;28;20215;-70
2022/01/16 05:10:58;;;;;;;48.60;29.00;;;;;;;-0.90;98.97;97474.63;5041271;28;20239;-70
2022/01/16 05:16:34;;;;;;;77.27;28.67;;;;;;;-0.89;97.31;97465.97;5046609;28;20203;-71
2022/01/16 05:16:35;;;;;;;54.37;29.10;;;;;;;-0.93;97.62;97486.00;5046949;28;20288;-68
2022/01/16 05:19:02;;;;;;;42.63;28.43;;;;;;;-0.95;98.38;97494.72;5045504;28;20224;-69
2022/01/16 05:21:29;;;;;;;115.97;30.67;;;;;;;-1.11;98.95;97487.47;5053154;28;20662;-69
2022/01/16 05:23:56;;;;;;;50.53;28.07;;;;;;;-1.04;98.18;97496.75;5057984;28;20656;-69
2022/01/16 05:26:26;;;;;;;49.60;28.33;;;;;;;-1.10;98.42;97499.50;5057600;28;20208;-70
2022/01/16 05:28:53;;;;;;;123.67;30.43;;;;;;;-1.19;96.68;97499.84;5038553;28;20211;-70
2022/01/16 05:31:20;;;;;;;44.10;27.53;;;;;;;-1.19;98.39;97510.22;5038881;28;20244;-70
2022/01/16 05:33:47;;;;;;;57.47;28.93;;;;;;;-1.09;99.00;97511.59;5038430;28;20556;-70
2022/01/16 05:36:14;;;;;;;56.67;29.47;;;;;;;-1.17;99.13;97512.78;5037971;28;20215;-70
2022/01/16 05:38:40;;;;;;;37.87;27.90;;;;;;;-1.22;98.89;97518.09;5037838;28;20255;-70
2022/01/16 05:41:08;;;;;;;60.57;29.00;;;;;;;-1.25;100.00;97519.97;5037972;28;20210;-69
2022/01/16 05:43:35;;;;;;;46.93;28.80;;;;;;;-1.16;100.00;97520.50;5037686;28;20634;-69
2022/01/16 05:46:01;;;;;;;57.13;30.07;;;;;;;-1.20;100.00;97523.22;5037957;28;20624;-69
2022/01/16 05:48:28;;;;;;;52.13;30.87;;;;;;;-1.24;100.00;97522.47;5052309;28;20201;-70
2022/01/16 05:50:55;;;;;;;43.13;28.17;;;;;;;-1.27;98.97;97517.41;5055141;28;20238;-69
2022/01/16 05:53:21;;;;;;;47.40;29.17;;;;;;;-1.32;98.14;97523.66;5047955;28;20225;-69
2022/01/16 05:55:48;;;;;;;42.00;28.10;;;;;;;-1.25;100.00;97526.00;5041332;28;20213;-71
2022/01/16 05:58:16;;;;;;;48.47;29.20;;;;;;;-1.17;100.00;97529.16;5038158;28;20600;-70
2022/01/16 06:00:44;;;;;;;45.90;28.30;;;;;;;-1.17;99.83;97528.34;5037372;28;20218;-71
2022/01/16 06:03:10;;;;;;;51.67;30.13;;;;;;;-1.14;99.47;97520.47;5041208;28;20704;-70
2022/01/16 06:05:37;;;;;;;43.70;30.20;;;;;;;-1.18;99.51;97522.31;5054017;28;20235;-69
2022/01/16 06:08:09;;;;;;;43.83;29.20;;;;;;;-0.96;98.87;97519.00;5040961;28;20219;-70
2022/01/16 06:10:36;;;;;;;42.37;29.10;;;;;;;-0.99;98.52;97532.91;5053207;28;20607;-71
2022/01/16 06:13:04;;;;;;;47.10;33.30;;;;;;;-0.91;99.29;97532.66;5075958;28;20259;-73
2022/01/16 06:15:32;;;;;;;51.80;30.87;;;;;;;-1.03;98.30;97532.16;5078232;28;20206;-71
2022/01/16 06:18:00;;;;;;;51.67;30.83;;;;;;;-1.07;98.41;97550.50;5077928;28;20211;-71
2022/01/16 06:20:26;;;;;;;48.10;29.43;;;;;;;-1.11;98.24;97560.13;5073470;28;20199;-70
2022/01/16 06:22:54;;;;;;;47.37;29.43;;;;;;;-1.14;98.48;97552.44;5068274;28;20211;-71
2022/01/16 06:25:22;;;;;;;46.93;30.00;;;;;;;-1.12;99.43;97565.34;5038751;28;20290;-70
2022/01/16 06:27:49;;;;;;;51.00;30.77;;;;;;;-1.06;99.07;97557.38;5057250;28;20211;-69
2022/01/16 06:30:15;;;;;;;47.50;32.00;;;;;;;-1.06;98.93;97558.22;5037179;28;20651;-70
2022/01/16 06:32:44;;;;;;;55.33;32.07;;;;;;;-1.07;98.84;97559.13;5036947;28;20209;-71
2022/01/16 06:35:11;;;;;;;50.47;30.87;;;;;;;-0.94;99.13;97566.50;5056774;28;20214;-70
2022/01/16 06:37:38;;;;;;;44.83;29.77;;;;;;;-0.84;98.97;97562.69;5043545;28;20218;-70
2022/01/16 06:40:06;;;;;;;42.47;29.00;;;;;;;-0.82;97.60;97573.91;5056525;28;20203;-69
2022/01/16 06:42:32;;;;;;;44.13;30.17;;;;;;;-0.83;97.60;97564.41;5040844;28;20216;-70
2022/01/16 06:44:59;;;;;;;42.27;28.13;;;;;;;-0.91;96.73;97571.59;5036915;28;20623;-69
2022/01/16 06:47:25;;;;;;;41.57;28.00;;;;;;;-0.97;96.35;97582.19;5042645;28;20212;-70
2022/01/16 06:49:53;;;;;;;38.83;28.40;;;;;;;-0.91;97.09;97587.16;5036863;28;20220;-70
2022/01/16 06:52:20;;;;;;;44.47;29.57;;;;;;;-0.84;96.09;97591.25;5036933;28;20235;-72
2022/01/16 06:54:46;;;;;;;46.47;29.90;;;;;;;-0.84;96.72;97588.66;5039923;28;20207;-69
2022/01/16 06:57:13;;;;;;;45.77;30.37;;;;;;;-0.85;96.84;97598.19;5053507;28;20208;-68
2022/01/16 06:59:39;;;;;;;46.33;32.00;;;;;;;-0.86;95.64;97601.72;5056127;28;20212;-70
2022/01/16 07:02:06;;;;;;;43.97;30.57;;;;;;;-0.90;96.30;97614.84;5055971;28;20211;-69
2022/01/16 07:04:32;;;;;;;46.03;30.47;;;;;;;-0.83;96.98;97613.75;5048771;28;20208;-69
2022/01/16 07:07:00;;;;;;;48.80;30.53;;;;;;;-0.86;96.95;97611.25;5051018;28;20211;-69
2022/01/16 07:09:26;;;;;;;46.97;30.27;;;;;;;-0.84;97.43;97618.09;5056337;28;20226;-70
2022/01/16 07:11:53;;;;;;;45.87;29.83;;;;;;;-0.86;97.28;97604.31;5055205;28;20690;-69
2022/01/16 07:14:19;;;;;;;45.47;30.20;;;;;;;-0.81;97.11;97594.59;5046578;28;20206;-70
2022/01/16 07:16:46;;;;;;;43.90;29.23;;;;;;;-0.67;96.87;97607.13;5036595;28;20216;-69
2022/01/16 07:19:12;;;;;;;46.83;30.93;;;;;;;-0.83;95.70;97608.53;5043041;28;20215;-70
2022/01/16 07:21:39;;;;;;;48.47;30.90;;;;;;;-0.93;96.34;97620.13;5040672;28;20217;-70
2022/01/16 07:24:07;;;;;;;43.43;30.50;;;;;;;-0.90;97.66;97614.84;5036040;28;20212;-70
2022/01/16 07:26:33;;;;;;;46.33;31.23;;;;;;;-0.85;97.89;97625.94;5036766;28;20219;-71
2022/01/16 07:28:59;;;;;;;42.50;30.33;;;;;;;-0.91;97.85;97628.72;5048441;28;20216;-68
2022/01/16 07:31:26;;;;;;;47.07;30.93;;;;;;;-0.86;97.78;97611.25;5036016;28;20245;-70
2022/01/16 07:33:53;;;;;;;47.37;30.80;;;;;;;-0.80;96.59;97611.03;5044520;28;20231;-70
2022/01/16 07:36:19;;;;;;;43.53;28.90;;;;;;;-0.79;97.34;97616.19;5057662;28;20234;-71
2022/01/16 07:38:46;;;;;;;45.13;29.67;;;;;;;-0.75;96.62;97635.13;5062024;28;20210;-71
2022/01/16 07:41:14;;;;;;;43.20;29.70;;;;;;;-0.81;96.82;97625.75;5050977;28;20218;-70
2022/01/16 07:43:40;;;;;;;45.47;30.27;;;;;;;-0.72;95.95;97627.22;5055603;28;20533;-70
2022/01/16 07:46:07;;;;;;;39.97;28.30;;;;;;;-0.76;96.21;97625.63;5053287;28;20203;-69
2022/01/16 07:48:33;;;;;;;38.20;26.87;;;;;;;-0.69;96.16;97616.72;5041167;28;20208;-68
2022/01/16 07:51:00;;;;;;;38.47;27.10;;;;;;;-0.67;95.27;97618.38;5035963;28;20238;-68
2022/01/16 07:53:26;;;;;;;38.63;27.07;;;;;;;-0.69;95.31;97634.91;5036128;28;20206;-67
2022/01/16 07:55:52;;;;;;;38.67;26.80;;;;;;;-0.60;95.56;97643.25;5048375;28;20219;-68
2022/01/16 07:58:20;;;;;;;44.90;29.87;;;;;;;-0.52;94.82;97643.00;5046873;28;20204;-69
2022/01/16 08:00:47;;;;;;;45.93;31.33;;;;;;;-0.56;95.34;97638.78;5039594;28;20630;-69
2022/01/16 08:03:13;;;;;;;42.07;29.60;;;;;;;-0.68;94.23;97626.22;5042093;28;20208;-71
2022/01/16 08:05:40;;;;;;;43.90;29.67;;;;;;;-0.61;96.36;97627.72;5046502;28;20242;-69
2022/01/16 08:08:06;;;;;;;44.80;31.10;;;;;;;-0.62;95.63;97629.47;5055554;28;20541;-70
2022/01/16 08:10:33;;;;;;;45.20;30.77;;;;;;;-0.55;96.45;97623.16;5050216;28;20208;-70
2022/01/16 08:12:59;;;;;;;46.03;31.20;;;;;;;-0.44;96.31;97627.16;5036488;28;20671;-69
2022/01/16 08:15:28;;;;;;;42.93;30.37;;;;;;;-0.39;95.54;97644.25;5038723;28;20640;-69
2022/01/16 08:17:54;;;;;;;45.50;31.07;;;;;;;-0.44;95.80;97634.94;5038370;28;20204;-69
2022/01/16 08:20:21;;;;;;;46.07;31.67;;;;;;;-0.45;94.49;97634.09;5038220;28;20208;-69
2022/01/16 08:22:48;;;;;;;44.40;30.93;;;;;;;-0.47;94.54;97633.31;5040259;28;20204;-69
2022/01/16 08:25:14;;;;;;;47.10;30.63;;;;;;;-0.40;95.60;97642.59;5058302;28;20231;-69
2022/01/16 08:27:41;;;;;;;45.47;31.47;;;;;;;-0.38;95.10;97640.78;5075821;28;20214;-69
2022/01/16 08:30:08;;;;;;;41.60;29.43;;;;;;;-0.35;94.58;97645.00;5074080;28;20215;-70
2022/01/16 08:32:37;;;;;;;43.10;31.67;;;;;;;-0.40;94.52;97647.78;5053460;28;20229;-68
2022/01/16 08:35:04;;;;;;;45.03;29.83;;;;;;;-0.33;94.36;97644.06;5046809;28;20272;-70
2022/01/16 08:37:30;;;;;;;41.83;30.27;;;;;;;-0.28;95.52;97656.88;5057279;28;20206;-69
2022/01/16 08:39:57;;;;;;;47.63;30.33;;;;;;;-0.38;93.64;97653.75;5054811;28;20543;-70
2022/01/16 08:42:23;;;;;;;45.03;31.67;;;;;;;-0.39;93.99;97653.84;5056312;28;20230;-69
2022/01/16 08:44:50;;;;;;;47.80;31.93;;;;;;;-0.39;94.10;97657.25;5042783;28;20219;-70
2022/01/16 08:47:16;;;;;;;41.97;29.07;;;;;;;-0.25;94.28;97673.22;5046442;28;20198;-69
2022/01/16 08:49:44;;;;;;;38.63;28.27;;;;;;;-0.20;94.02;97671.34;5053384;28;20213;-70
2022/01/16 08:52:11;;;;;;;40.03;29.53;;;;;;;-0.26;93.89;97679.34;5054534;28;20230;-68
2022/01/16 08:54:38;;;;;;;41.27;30.10;;;;;;;-0.25;92.43;97672.41;5058796;28;20222;-68
2022/01/16 08:57:05;;;;;;;43.50;29.13;;;;;;;-0.17;93.30;97671.22;5058707;28;20212;-67
2022/01/16 08:59:32;;;;;;;43.07;29.87;;;;;;;-0.20;93.35;97680.88;5056642;28;20212;-68
2022/01/16 09:01:58;;;;;;;40.97;27.63;;;;;;;-0.15;93.37;97681.59;5054532;28;20231;-69
2022/01/16 09:04:25;;;;;;;42.00;28.77;;;;;;;-0.12;93.08;97684.94;5046463;28;20219;-69
2022/01/16 09:06:53;;;;;;;41.07;29.77;;;;;;;-0.07;93.11;97693.41;5049087;28;20239;-68
2022/01/16 09:09:19;;;;;;;43.43;30.17;;;;;;;-0.06;92.78;97679.50;5050474;28;20215;-68
2022/01/16 09:11:46;;;;;;;43.00;30.43;;;;;;;-0.09;91.85;97690.00;5040810;28;20235;-69
2022/01/16 09:14:12;;;;;;;42.23;30.13;;;;;;;-0.04;91.78;97684.66;5038980;28;20262;-67
2022/01/16 09:16:39;;;;;;;40.80;28.33;;;;;;;0.21;92.50;97697.66;5040205;28;20209;-68
2022/01/16 09:19:06;;;;;;;39.17;30.00;;;;;;;0.11;91.19;97696.28;5060373;28;20219;-68
2022/01/16 09:21:32;;;;;;;41.17;29.50;;;;;;;0.17;91.49;97701.25;5053896;28;20277;-70
2022/01/16 09:24:00;;;;;;;38.57;29.17;;;;;;;0.19;92.12;97709.84;5065164;28;20212;-69
2022/01/16 09:26:27;;;;;;;40.63;30.70;;;;;;;0.21;91.07;97708.06;5051382;28;20231;-69
2022/01/16 09:28:54;;;;;;;42.70;31.80;;;;;;;0.39;91.44;97702.22;5050184;28;20515;-68
2022/01/16 09:31:21;;;;;;;39.90;28.97;;;;;;;0.46;90.65;97704.50;5068790;28;20216;-69
2022/01/16 09:33:47;;;;;;;39.43;28.70;;;;;;;0.60;91.18;97697.97;5063452;28;20198;-70
2022/01/16 09:36:13;;;;;;;39.20;27.97;;;;;;;0.92;90.11;97703.63;5047245;28;20230;-71
2022/01/16 09:38:41;;;;;;;41.33;29.90;;;;;;;1.05;87.17;97713.59;5040725;28;20228;-70
2022/01/16 09:41:09;;;;;;;40.23;29.17;;;;;;;1.18;87.32;97712.22;5038302;28;20745;-68
2022/01/16 09:43:37;;;;;;;38.67;26.67;;;;;;;1.54;84.83;97723.78;5038339;28;20194;-70
2022/01/16 09:46:04;;;;;;;34.67;25.43;;;;;;;1.94;82.39;97718.66;5037962;28;20306;-70
2022/01/16 09:48:30;;;;;;;27.67;22.30;;;;;;;2.89;80.28;97724.00;5042752;28;20610;-70
2022/01/16 09:50:57;;;;;;;26.57;21.17;;;;;;;3.27;75.91;97716.16;5037771;28;20628;-69
2022/01/16 09:53:24;;;;;;;24.80;19.77;;;;;;;3.92;70.55;97716.44;5051382;28;20235;-70
2022/01/16 09:55:51;;;;;;;23.93;20.20;;;;;;;4.31;70.05;97710.13;5041003;28;20223;-70
2022/01/16 09:58:20;;;;;;;23.07;18.73;;;;;;;5.14;66.04;97720.50;5042486;28;20568;-69
2022/01/16 10:00:47;;;;;;;19.13;16.93;;;;;;;5.72;61.79;97711.13;5053513;28;20216;-70
2022/01/16 10:03:35;;;;;;;18.57;16.67;;;;;;;6.29;59.96;97708.69;5048710;28;20212;-70
2022/01/16 10:06:13;;;;;;;19.50;16.77;;;;;;;6.82;59.45;97723.88;5040116;28;20562;-70
2022/01/16 10:08:41;;;;;;;18.30;16.30;;;;;;;7.82;56.22;97713.06;5042644;28;20298;-70
2022/01/16 10:11:20;;;;;;;17.60;15.80;;;;;;;7.61;56.07;97714.47;5050627;28;20572;-70
2022/01/16 10:13:57;;;;;;;19.63;17.57;;;;;;;7.78;54.47;97716.84;5035118;28;20228;-70
2022/01/16 10:16:28;;;;;;;16.93;15.17;;;;;;;8.63;51.85;97705.88;5037214;28;20207;-70
2022/01/16 10:18:55;;;;;;;18.40;16.50;;;;;;;8.29;52.53;97701.22;5037254;28;20218;-69
2022/01/16 10:21:36;;;;;;;18.17;16.35;;;;;;;8.17;51.54;97702.00;5037347;28;20200;-70
2022/01/16 10:24:23;;;;;;;18.05;16.20;;;;;;;9.11;48.64;97698.97;5051158;28;20203;-70
2022/01/16 10:26:51;;;;;;;17.38;15.57;;;;;;;8.42;50.93;97696.81;5038411;28;20631;-70
2022/01/16 10:29:21;;;;;;;17.48;15.70;;;;;;;8.66;50.84;97696.91;5037063;28;20211;-70
2022/01/16 10:31:50;;;;;;;17.77;15.98;;;;;;;8.73;51.00;97704.28;5041866;28;20237;-70
2022/01/16 10:34:25;;;;;;;18.38;16.40;;;;;;;9.12;50.92;97699.81;5056878;28;20537;-70
2022/01/16 10:36:52;;;;;;;18.15;16.27;;;;;;;8.35;51.14;97711.34;5050073;28;20215;-70
2022/01/16 10:39:18;;;;;;;18.88;16.98;;;;;;;8.67;50.26;97712.63;5051656;28;20207;-71
2022/01/16 10:41:46;;;;;;;19.40;17.50;;;;;;;8.57;50.81;97716.84;5055468;28;20222;-70
2022/01/16 10:44:29;;;;;;;19.00;17.20;;;;;;;8.88;51.92;97723.50;5052598;28;20208;-71
2022/01/16 10:46:55;;;;;;;17.63;15.90;;;;;;;9.93;47.01;97730.00;5048720;28;20561;-70
2022/01/16 10:49:22;;;;;;;16.15;14.55;;;;;;;9.83;48.69;97727.19;5055451;28;20218;-70
2022/01/16 10:52:06;;;;;;;18.23;16.42;;;;;;;9.75;47.98;97729.53;5047110;28;20222;-70
2022/01/16 10:54:34;;;;;;;17.50;15.70;;;;;;;10.57;44.86;97723.41;5047678;28;20228;-71
2022/01/16 10:57:19;;;;;;;17.05;15.35;;;;;;;10.56;43.82;97716.44;5056893;28;20229;-71
2022/01/16 10:59:47;;;;;;;17.33;15.52;;;;;;;10.57;43.91;97710.19;5056082;28;20207;-70
2022/01/16 11:02:13;;;;;;;17.80;15.90;;;;;;;10.22;44.44;97710.22;5056275;28;20207;-70
2022/01/16 11:04:40;;;;;;;16.80;15.02;;;;;;;10.15;45.59;97711.63;5056098;28;20199;-68
2022/01/16 11:07:06;;;;;;;17.15;15.32;;;;;;;10.53;44.55;97707.88;5055987;28;20206;-69
2022/01/16 11:09:33;;;;;;;17.48;15.80;;;;;;;9.61;46.35;97710.34;5055762;28;20214;-69
2022/01/16 11:12:00;;;;;;;18.00;16.20;;;;;;;9.48;46.38;97700.69;5042574;28;20238;-69
2022/01/16 11:14:27;;;;;;;17.98;16.17;;;;;;;9.54;47.90;97709.97;5056615;28;20210;-69
2022/01/16 11:16:55;;;;;;;18.25;16.35;;;;;;;9.40;47.37;97703.03;5039723;28;20238;-69
2022/01/16 11:19:23;;;;;;;15.77;14.18;;;;;;;8.97;47.34;97710.50;5036485;28;20556;-68
2022/01/16 11:21:54;;;;;;;18.00;16.00;;;;;;;8.69;48.77;97710.72;5040119;28;20204;-69
2022/01/16 11:24:35;;;;;;;18.23;16.30;;;;;;;8.07;51.28;97707.03;5035530;28;20212;-70
2022/01/16 11:27:01;;;;;;;18.13;16.23;;;;;;;8.01;51.27;97712.69;5036754;28;20580;-70
2022/01/16 11:29:29;;;;;;;19.37;17.03;;;;;;;7.55;53.25;97714.84;5045151;28;20203;-70
2022/01/16 11:31:58;;;;;;;18.77;16.20;;;;;;;7.15;54.35;97713.06;5047455;28;20230;-70
2022/01/16 11:34:27;;;;;;;18.57;16.37;;;;;;;7.07;54.93;97710.06;5056749;28;20207;-71
2022/01/16 11:36:54;;;;;;;18.93;15.43;;;;;;;6.93;55.74;97705.66;5058561;28;20207;-69
2022/01/16 11:39:20;;;;;;;19.37;15.40;;;;;;;6.58;55.04;97701.72;5059734;28;20214;-72
2022/01/16 11:41:53;;;;;;;21.13;15.70;;;;;;;6.37;55.54;97694.19;5040040;28;20268;-68
2022/01/16 11:44:25;;;;;;;18.13;15.37;;;;;;;6.05;57.88;97695.22;5056407;28;20207;-67
2022/01/16 11:46:55;;;;;;;20.10;16.53;;;;;;;6.03;56.93;97698.88;5055017;28;20203;-69
2022/01/16 11:49:34;;;;;;;20.30;15.70;;;;;;;5.74;57.63;97696.09;5040585;28;20203;-68
2022/01/16 11:52:09;;;;;;;19.57;15.63;;;;;;;5.32;59.19;97703.78;5057936;28;20535;-69
2022/01/16 11:54:37;;;;;;;19.63;15.60;;;;;;;5.03;60.88;97694.88;5038137;28;20203;-69